Taintor, Iowa
Current Conditions -  °F | °C
As of 5:15 PM on Friday 31 Oct 2014 (Local Time) from KPEA Reporting Station
Clear Clear  
Wind Chill: 36°   Ceiling: Unl
Heat Index: 42°   Visibility: 10mi
Dew Point: 18°   Wind: 9mph
Humidity: 38%   Direction: 360°N
Pressure: 30.45"   Gusts: 20mph
Location:  41.465°N, 92.7016°W
Report Text: KPEA 312215Z AUTO 36008G17KT 10SM CLR 06/M08 A3045 RMK AO2 T00551077
Loading
Personal Weather Stations






























Interactive Weather Map
Tropical Storm Tracking
New forecast layout! Learn more

10-Day Weather Forecast

Advertisements
Track Severe Weather on mobile